Time;durP1;ratioP1;P1;durP2;ratioP2;P2;SDS_P1;SDS_P2;PMS_P1;PMS_P2;Temp;Humidity;BMP_temperature;BMP_pressure;BME280_temperature;BME280_humidity;BME280_pressure;Samples;Min_cycle;Max_cycle;Signal;HPM_P1;HPM_P2
2023/03/25 00:00:05;;;;;;;19.08;2.65;;;10.40;99.90;;;;;;4861465;29;20552;-92
2023/03/25 00:02:31;;;;;;;17.95;2.45;;;10.00;99.90;;;;;;4864266;29;20498;-93
2023/03/25 00:04:59;;;;;;;17.50;2.88;;;10.40;99.90;;;;;;4863010;29;20864;-92
2023/03/25 00:07:25;;;;;;;19.57;2.80;;;10.20;99.90;;;;;;4863998;29;20782;-93
2023/03/25 00:09:50;;;;;;;21.17;3.27;;;10.30;99.90;;;;;;4864064;29;20497;-92
2023/03/25 00:12:16;;;;;;;18.60;3.17;;;10.30;99.90;;;;;;4878026;29;20506;-93
2023/03/25 00:14:43;;;;;;;17.63;2.28;;;10.20;99.90;;;;;;4864214;29;20453;-92
2023/03/25 00:17:09;;;;;;;17.05;2.55;;;10.20;99.90;;;;;;4862749;29;21086;-93
2023/03/25 00:19:35;;;;;;;22.08;3.00;;;10.20;99.90;;;;;;4863927;29;20423;-92
2023/03/25 00:22:01;;;;;;;18.75;2.67;;;10.20;99.90;;;;;;4862898;29;20433;-93
2023/03/25 00:24:27;;;;;;;20.80;2.95;;;10.20;99.90;;;;;;4864366;29;20421;-93
2023/03/25 00:26:53;;;;;;;18.83;3.45;;;10.20;99.90;;;;;;4862993;29;20486;-92
2023/03/25 00:29:19;;;;;;;21.27;2.85;;;10.20;99.90;;;;;;4862599;29;21043;-93
2023/03/25 00:31:45;;;;;;;23.37;3.33;;;10.10;99.90;;;;;;4863732;29;20419;-93
2023/03/25 00:34:15;;;;;;;24.23;3.60;;;10.10;99.90;;;;;;4862778;29;20839;-94
2023/03/25 00:36:42;;;;;;;21.43;2.97;;;9.70;99.90;;;;;;4863823;29;20834;-93
2023/03/25 00:39:08;;;;;;;22.90;3.42;;;10.00;99.90;;;;;;4861884;29;20465;-91
2023/03/25 00:41:36;;;;;;;23.52;3.90;;;10.40;99.90;;;;;;4863765;29;20454;-94
2023/03/25 00:44:02;;;;;;;25.15;3.40;;;9.80;99.90;;;;;;4862606;29;20489;-94
2023/03/25 00:46:31;;;;;;;26.33;4.10;;;9.90;99.90;;;;;;4863057;29;20415;-93
2023/03/25 00:48:57;;;;;;;26.38;3.88;;;9.70;99.90;;;;;;4863362;29;20930;-93
2023/03/25 00:51:25;;;;;;;22.88;3.85;;;10.20;99.90;;;;;;4861774;29;20411;-93
2023/03/25 00:53:53;;;;;;;26.58;4.07;;;9.80;99.90;;;;;;4863498;29;20415;-94
2023/03/25 00:56:19;;;;;;;26.80;4.07;;;9.90;99.90;;;;;;4861790;29;20423;-93
2023/03/25 00:58:45;;;;;;;24.33;4.00;;;9.90;99.90;;;;;;4863494;29;20411;-93
2023/03/25 01:01:14;;;;;;;24.55;4.10;;;9.70;99.90;;;;;;4861907;29;20465;-94
2023/03/25 01:03:42;;;;;;;23.20;3.83;;;9.70;99.90;;;;;;4862759;29;20905;-92
2023/03/25 01:06:13;;;;;;;24.38;3.63;;;9.70;99.90;;;;;;4862766;29;20426;-93
2023/03/25 01:08:40;;;;;;;24.92;3.70;;;10.10;99.90;;;;;;4861357;29;20435;-93
2023/03/25 01:11:17;;;;;;;24.33;3.60;;;9.60;99.90;;;;;;4862311;29;20416;-92
2023/03/25 01:13:42;;;;;;;26.17;3.92;;;9.60;99.90;;;;;;4861154;29;20478;-92
2023/03/25 01:16:08;;;;;;;21.80;3.70;;;9.60;99.90;;;;;;4863119;29;20942;-92
2023/03/25 01:18:36;;;;;;;27.50;4.20;;;9.60;99.90;;;;;;4861826;29;20482;-94
2023/03/25 01:21:06;;;;;;;25.37;3.40;;;9.60;99.90;;;;;;4862379;29;20449;-92
2023/03/25 01:23:33;;;;;;;24.33;4.18;;;9.60;99.90;;;;;;4863273;29;20791;-93
2023/03/25 01:25:59;;;;;;;27.30;3.80;;;9.60;99.90;;;;;;4861379;29;20583;-93
2023/03/25 01:28:26;;;;;;;23.70;3.47;;;9.70;99.90;;;;;;4862921;29;20422;-93
2023/03/25 01:31:02;;;;;;;27.95;4.63;;;9.60;99.90;;;;;;4860901;29;20407;-92
2023/03/25 01:33:28;;;;;;;23.75;3.85;;;9.80;99.90;;;;;;4862860;29;20419;-93
2023/03/25 01:35:54;;;;;;;27.92;4.28;;;9.50;99.90;;;;;;4861324;29;20422;-91
2023/03/25 01:38:20;;;;;;;26.17;4.63;;;9.60;99.90;;;;;;4862568;29;20431;-93
2023/03/25 01:40:46;;;;;;;27.85;4.63;;;9.90;99.90;;;;;;4862231;29;20443;-93
2023/03/25 01:43:14;;;;;;;26.15;4.45;;;9.60;99.90;;;;;;4860717;29;20426;-92
2023/03/25 01:45:40;;;;;;;26.37;4.07;;;9.80;99.90;;;;;;4862787;29;20802;-93
2023/03/25 01:48:09;;;;;;;31.10;4.78;;;9.60;99.90;;;;;;4860565;29;20425;-94
2023/03/25 01:50:40;;;;;;;26.83;3.95;;;9.50;99.90;;;;;;4862522;29;20422;-94
2023/03/25 01:53:07;;;;;;;28.30;4.35;;;9.80;99.90;;;;;;4860686;29;20547;-94
2023/03/25 01:55:35;;;;;;;25.58;3.85;;;9.40;99.90;;;;;;4861657;29;20429;-93
2023/03/25 01:58:06;;;;;;;25.33;4.17;;;9.40;99.90;;;;;;4861953;29;20433;-93
2023/03/25 02:00:32;;;;;;;25.50;4.10;;;9.40;99.90;;;;;;4860855;29;20981;-93
2023/03/25 02:03:00;;;;;;;27.17;4.35;;;9.60;99.90;;;;;;4862213;29;20597;-92
2023/03/25 02:05:38;;;;;;;28.52;4.25;;;9.60;99.90;;;;;;4860539;29;20502;-92
2023/03/25 02:08:07;;;;;;;28.40;4.10;;;9.40;99.90;;;;;;4862314;29;20423;-94
2023/03/25 02:10:34;;;;;;;27.02;5.00;;;9.40;99.90;;;;;;4860989;29;20790;-94
2023/03/25 02:13:01;;;;;;;28.33;5.15;;;9.50;99.90;;;;;;4861587;29;20429;-92
2023/03/25 02:15:33;;;;;;;25.30;3.65;;;9.30;99.90;;;;;;4861642;29;20433;-93
2023/03/25 02:18:23;;;;;;;25.23;4.45;;;9.60;99.90;;;;;;4860335;29;23554;-92
2023/03/25 02:21:22;;;;;;;22.92;3.95;;;9.40;99.90;;;;;;4861910;29;20439;-93
2023/03/25 02:24:07;;;;;;;29.40;5.43;;;9.50;99.90;;;;;;4861127;29;20482;-92
2023/03/25 02:26:32;;;;;;;28.35;4.88;;;9.50;99.90;;;;;;4860108;29;20419;-92
2023/03/25 02:29:06;;;;;;;34.23;5.30;;;9.50;99.90;;;;;;4861901;29;20426;-93
2023/03/25 02:31:53;;;;;;;23.67;3.97;;;9.50;99.90;;;;;;4859661;29;20505;-93
2023/03/25 02:34:19;;;;;;;29.35;4.88;;;9.50;99.90;;;;;;4861509;29;20427;-93
2023/03/25 02:37:12;;;;;;;31.15;4.50;;;9.70;99.90;;;;;;4876057;29;20922;-93
2023/03/25 02:40:23;;;;;;;24.50;3.90;;;9.50;99.90;;;;;;4860065;29;20418;-93
2023/03/25 02:42:59;;;;;;;27.88;4.40;;;9.50;99.90;;;;;;4819168;29;20429;-93
2023/03/25 02:45:41;;;;;;;27.85;4.78;;;9.70;99.90;;;;;;4861307;29;20435;-93
2023/03/25 02:48:18;;;;;;;29.25;4.53;;;9.50;99.90;;;;;;4860529;29;20475;-94
2023/03/25 02:50:54;;;;;;;28.57;4.80;;;9.50;99.90;;;;;;4861610;29;20417;-92
2023/03/25 02:53:29;;;;;;;23.23;4.20;;;9.70;99.90;;;;;;4859495;29;20871;-93
2023/03/25 02:55:59;;;;;;;29.35;4.55;;;9.50;99.90;;;;;;4861686;29;20418;-92
2023/03/25 02:58:28;;;;;;;23.83;4.00;;;9.50;99.90;;;;;;4860812;29;21002;-93
2023/03/25 03:00:58;;;;;;;27.63;4.93;;;9.50;99.90;;;;;;4860178;29;20471;-93
2023/03/25 03:03:26;;;;;;;25.10;4.20;;;9.50;99.90;;;;;;4861444;29;20418;-92
2023/03/25 03:05:56;;;;;;;27.40;4.32;;;9.50;99.90;;;;;;4859524;29;20445;-93
2023/03/25 03:08:42;;;;;;;27.25;4.65;;;9.50;99.90;;;;;;4861178;29;20426;-93
2023/03/25 03:11:24;;;;;;;23.67;3.78;;;9.50;99.90;;;;;;4859737;29;20431;-92
2023/03/25 03:14:05;;;;;;;24.07;4.03;;;9.50;99.90;;;;;;4860367;29;20525;-94
2023/03/25 03:16:47;;;;;;;28.05;4.47;;;9.50;99.90;;;;;;4861139;29;20523;-93
2023/03/25 03:19:33;;;;;;;26.17;3.70;;;9.50;99.90;;;;;;4859297;29;20513;-94
2023/03/25 03:22:24;;;;;;;27.83;4.63;;;9.70;99.90;;;;;;4860801;29;20430;-91
2023/03/25 03:25:00;;;;;;;28.17;4.00;;;9.50;99.90;;;;;;4860871;29;20950;-93
2023/03/25 03:27:52;;;;;;;23.83;4.20;;;9.50;99.90;;;;;;4859397;29;20973;-94
2023/03/25 03:30:26;;;;;;;23.63;3.97;;;9.50;99.90;;;;;;4860894;29;20506;-92
2023/03/25 03:32:54;;;;;;;24.92;4.25;;;9.50;99.90;;;;;;4859164;29;20435;-92
2023/03/25 03:35:30;;;;;;;30.05;4.43;;;9.50;99.90;;;;;;4860070;29;20439;-93
2023/03/25 03:38:08;;;;;;;26.38;4.03;;;9.50;99.90;;;;;;4861130;29;20439;-92
2023/03/25 03:40:35;;;;;;;26.52;4.47;;;9.70;99.90;;;;;;4859193;29;20443;-92
2023/03/25 03:43:15;;;;;;;28.40;4.50;;;9.50;99.90;;;;;;4860916;29;20474;-93
2023/03/25 03:45:47;;;;;;;24.48;4.07;;;9.60;99.90;;;;;;4859465;29;20418;-92
2023/03/25 03:48:27;;;;;;;26.95;4.63;;;9.50;99.90;;;;;;4860098;29;20423;-93
2023/03/25 03:51:06;;;;;;;25.25;3.55;;;9.40;99.90;;;;;;4860661;29;20937;-92
2023/03/25 03:53:57;;;;;;;28.88;4.47;;;9.40;99.90;;;;;;4858791;29;20498;-93
2023/03/25 03:56:35;;;;;;;27.27;4.43;;;9.40;99.90;;;;;;4861165;29;20822;-91
2023/03/25 03:59:15;;;;;;;32.03;4.82;;;9.30;99.90;;;;;;4859984;29;20450;-92
2023/03/25 04:01:52;;;;;;;30.02;4.82;;;9.40;99.90;;;;;;4859405;29;20434;-92
2023/03/25 04:04:33;;;;;;;24.73;4.07;;;9.50;99.90;;;;;;4860412;29;20945;-93
2023/03/25 04:07:14;;;;;;;24.58;4.50;;;9.50;99.90;;;;;;4858944;29;20968;-92
2023/03/25 04:09:53;;;;;;;27.30;4.13;;;9.60;99.90;;;;;;4860160;29;20438;-93
2023/03/25 04:12:37;;;;;;;26.87;4.03;;;9.40;99.90;;;;;;4876076;29;20855;-93
2023/03/25 04:15:04;;;;;;;28.42;3.85;;;9.50;99.90;;;;;;4858761;29;20427;-92
2023/03/25 04:17:31;;;;;;;27.43;4.10;;;9.50;99.90;;;;;;4860586;29;20414;-92
2023/03/25 04:19:58;;;;;;;27.43;4.77;;;9.50;99.90;;;;;;4858753;29;20438;-93
2023/03/25 04:22:23;;;;;;;27.80;4.32;;;9.50;99.90;;;;;;4860910;29;20445;-93
2023/03/25 04:24:50;;;;;;;29.10;4.55;;;9.50;99.90;;;;;;4859493;29;20501;-92
2023/03/25 04:27:21;;;;;;;28.35;4.13;;;9.60;99.90;;;;;;4859947;29;20437;-92
2023/03/25 04:29:50;;;;;;;28.10;4.55;;;9.60;99.90;;;;;;4860747;29;20422;-91
2023/03/25 04:32:16;;;;;;;25.45;4.03;;;9.50;99.90;;;;;;4858599;29;20425;-91
2023/03/25 04:34:42;;;;;;;23.80;4.50;;;9.60;99.90;;;;;;4860513;29;20451;-93
2023/03/25 04:37:08;;;;;;;26.52;3.75;;;9.50;99.90;;;;;;4858932;29;20463;-92
2023/03/25 04:39:34;;;;;;;26.05;4.18;;;9.50;99.90;;;;;;4860521;29;20846;-92
2023/03/25 04:42:02;;;;;;;24.88;4.05;;;9.50;99.90;;;;;;4859162;29;20415;-93
2023/03/25 04:44:37;;;;;;;26.17;4.65;;;9.60;99.90;;;;;;4860550;29;20866;-92
2023/03/25 04:47:06;;;;;;;27.15;4.53;;;9.50;99.90;;;;;;4863381;29;20419;-92
2023/03/25 04:49:32;;;;;;;27.38;4.80;;;9.50;99.90;;;;;;4862087;29;20463;-93
2023/03/25 04:52:00;;;;;;;27.20;4.18;;;9.60;99.90;;;;;;4864016;29;20929;-94
2023/03/25 04:54:27;;;;;;;26.70;4.83;;;9.50;99.90;;;;;;4861643;29;21030;-92
2023/03/25 04:56:52;;;;;;;23.63;4.78;;;9.50;99.90;;;;;;4863541;29;20423;-92
2023/03/25 04:59:20;;;;;;;26.00;4.68;;;9.50;99.90;;;;;;4862832;29;20431;-92
2023/03/25 05:01:46;;;;;;;29.33;5.05;;;9.50;99.90;;;;;;4863137;29;20442;-93
2023/03/25 05:04:16;;;;;;;24.55;4.22;;;9.50;99.90;;;;;;4863346;29;20419;-93
2023/03/25 05:06:49;;;;;;;26.23;4.50;;;9.40;99.90;;;;;;4861580;29;20446;-91
2023/03/25 05:09:23;;;;;;;28.70;5.30;;;9.40;99.90;;;;;;4863445;29;20429;-93
2023/03/25 05:11:51;;;;;;;25.88;4.32;;;9.40;99.90;;;;;;4861703;29;20415;-92
2023/03/25 05:14:20;;;;;;;28.90;4.38;;;9.40;99.90;;;;;;4863007;29;20941;-92
2023/03/25 05:16:46;;;;;;;26.07;4.33;;;9.60;99.90;;;;;;4862395;29;20771;-93
2023/03/25 05:19:13;;;;;;;30.88;5.38;;;9.70;99.90;;;;;;4862766;29;20877;-93
2023/03/25 05:21:39;;;;;;;24.45;4.50;;;9.30;99.90;;;;;;4862914;29;20457;-93
2023/03/25 05:24:09;;;;;;;27.58;4.88;;;9.50;99.90;;;;;;4861265;29;20422;-93
2023/03/25 05:26:35;;;;;;;27.47;5.23;;;9.40;99.90;;;;;;4863464;29;20841;-92
2023/03/25 05:29:09;;;;;;;30.30;4.80;;;9.40;99.90;;;;;;4860968;29;20478;-92
2023/03/25 05:31:35;;;;;;;28.50;5.40;;;9.30;99.90;;;;;;4863015;29;20422;-92
2023/03/25 05:34:05;;;;;;;29.63;5.07;;;9.20;99.90;;;;;;4862054;29;20431;-93
2023/03/25 05:36:31;;;;;;;28.17;4.80;;;9.40;99.90;;;;;;4861967;29;20419;-92
2023/03/25 05:38:57;;;;;;;28.55;4.93;;;9.50;99.90;;;;;;4862825;29;20767;-94
2023/03/25 05:41:31;;;;;;;30.95;4.97;;;9.40;99.90;;;;;;4861177;29;20439;-93
2023/03/25 05:44:00;;;;;;;30.70;5.65;;;9.40;99.90;;;;;;4863098;29;20475;-93
2023/03/25 05:46:28;;;;;;;27.53;4.63;;;9.30;99.90;;;;;;4861335;29;20471;-93
2023/03/25 05:48:56;;;;;;;29.27;4.77;;;9.30;99.90;;;;;;4862832;29;20433;-92
2023/03/25 05:51:23;;;;;;;34.17;4.93;;;9.40;99.90;;;;;;4861248;29;20875;-93
2023/03/25 05:53:48;;;;;;;27.38;4.50;;;9.40;99.90;;;;;;4861588;29;20423;-93
2023/03/25 05:56:18;;;;;;;32.38;5.43;;;9.40;99.90;;;;;;4862201;29;20423;-91
2023/03/25 05:58:45;;;;;;;27.67;4.63;;;9.40;99.90;;;;;;4860958;29;20483;-93
2023/03/25 06:01:15;;;;;;;28.50;5.07;;;9.50;99.90;;;;;;4862287;29;20442;-94
2023/03/25 06:03:42;;;;;;;26.70;5.30;;;9.90;99.90;;;;;;4860384;29;20423;-92
2023/03/25 06:06:17;;;;;;;29.73;4.55;;;9.50;99.90;;;;;;4862555;29;20411;-93
2023/03/25 06:08:51;;;;;;;29.90;4.97;;;9.40;99.90;;;;;;4860566;29;20427;-92
2023/03/25 06:11:18;;;;;;;28.60;4.15;;;9.40;99.90;;;;;;4861189;29;20427;-91
2023/03/25 06:13:48;;;;;;;24.75;4.45;;;9.50;99.90;;;;;;4861793;29;20474;-91
2023/03/25 06:16:17;;;;;;;26.52;4.85;;;9.50;99.90;;;;;;4860572;29;20415;-93
2023/03/25 06:18:49;;;;;;;26.13;4.43;;;9.60;99.90;;;;;;4862119;29;20426;-93
2023/03/25 06:21:18;;;;;;;20.90;3.90;;;9.60;99.90;;;;;;4860162;29;20990;-93
2023/03/25 06:23:47;;;;;;;24.63;4.20;;;9.70;99.90;;;;;;4861814;29;20423;-93
2023/03/25 06:26:13;;;;;;;22.77;3.63;;;9.60;99.90;;;;;;4861228;29;20936;-92
2023/03/25 06:28:38;;;;;;;20.60;3.60;;;9.60;99.90;;;;;;4861086;29;20925;-93
2023/03/25 06:31:07;;;;;;;24.15;3.65;;;9.50;99.90;;;;;;4861789;29;20429;-92
2023/03/25 06:33:33;;;;;;;21.90;4.03;;;9.50;99.90;;;;;;4860366;29;20843;-93
2023/03/25 06:35:58;;;;;;;22.10;4.63;;;9.50;99.90;;;;;;4861921;29;20422;-93
2023/03/25 06:38:25;;;;;;;24.50;4.15;;;9.30;99.90;;;;;;4860313;29;20435;-92
2023/03/25 06:40:50;;;;;;;25.38;4.28;;;9.50;99.90;;;;;;4861953;29;20514;-93
2023/03/25 06:43:16;;;;;;;20.47;3.43;;;9.60;99.90;;;;;;4860093;29;20765;-94
2023/03/25 06:45:42;;;;;;;21.65;3.55;;;9.60;99.90;;;;;;4861849;29;20422;-92
2023/03/25 06:48:08;;;;;;;22.13;3.42;;;9.70;99.90;;;;;;4861279;29;20487;-93
2023/03/25 06:50:34;;;;;;;21.17;3.20;;;10.10;99.90;;;;;;4860460;29;20839;-93
2023/03/25 06:52:59;;;;;;;20.02;3.13;;;9.80;99.90;;;;;;4861879;29;20474;-94
2023/03/25 06:55:25;;;;;;;20.60;3.08;;;10.20;99.90;;;;;;4859511;29;20454;-93
2023/03/25 06:57:55;;;;;;;18.83;2.97;;;9.70;99.90;;;;;;4861902;29;20533;-90
2023/03/25 07:00:23;;;;;;;19.33;2.50;;;9.50;99.90;;;;;;4859649;29;20790;-89
2023/03/25 07:02:49;;;;;;;20.70;3.35;;;9.70;99.90;;;;;;4861097;29;20415;-93
2023/03/25 07:05:15;;;;;;;21.45;2.80;;;9.90;99.90;;;;;;4861095;29;20411;-93
2023/03/25 07:07:40;;;;;;;15.40;2.08;;;9.50;99.90;;;;;;4860460;29;21047;-93
2023/03/25 07:10:06;;;;;;;19.85;3.05;;;9.90;99.90;;;;;;4861113;29;20458;-93
2023/03/25 07:12:34;;;;;;;22.42;3.15;;;9.10;99.90;;;;;;4859530;29;20439;-94
2023/03/25 07:15:00;;;;;;;27.27;3.55;;;9.00;99.90;;;;;;4861155;29;20419;-93
2023/03/25 07:17:26;;;;;;;21.37;3.00;;;9.10;99.90;;;;;;4859049;29;20411;-94
2023/03/25 07:19:51;;;;;;;22.50;3.53;;;8.80;99.90;;;;;;4861258;29;20763;-91
2023/03/25 07:22:17;;;;;;;24.23;3.33;;;8.60;99.90;;;;;;4859910;29;20426;-94
2023/03/25 07:24:43;;;;;;;19.90;3.10;;;9.00;99.90;;;;;;4860787;29;20523;-93
2023/03/25 07:27:11;;;;;;;16.13;2.58;;;9.00;99.90;;;;;;4860686;29;20853;-92
2023/03/25 07:29:37;;;;;;;19.48;2.83;;;9.50;99.90;;;;;;4859709;29;20419;-94
2023/03/25 07:32:02;;;;;;;20.70;2.92;;;9.00;99.90;;;;;;4861154;29;20426;-93
2023/03/25 07:34:28;;;;;;;21.45;3.08;;;8.90;99.90;;;;;;4858802;29;20423;-93
2023/03/25 07:36:54;;;;;;;22.27;3.40;;;9.10;99.90;;;;;;4860818;29;20435;-94
2023/03/25 07:39:20;;;;;;;21.30;3.67;;;9.30;99.90;;;;;;4859160;29;20574;-90
2023/03/25 07:41:46;;;;;;;21.08;3.78;;;9.00;99.90;;;;;;4860813;29;20514;-95
2023/03/25 07:44:13;;;;;;;17.47;3.30;;;9.30;99.90;;;;;;4859902;29;20499;-92
2023/03/25 07:46:38;;;;;;;22.55;3.22;;;9.00;99.90;;;;;;4859413;29;20418;-94
2023/03/25 07:49:04;;;;;;;20.80;3.00;;;9.10;99.90;;;;;;4860984;29;20517;-90
2023/03/25 07:51:32;;;;;;;18.88;2.20;;;9.00;99.90;;;;;;4858855;29;21009;-94
2023/03/25 07:53:57;;;;;;;15.25;2.28;;;9.10;99.90;;;;;;4860849;29;20509;-95
2023/03/25 07:56:23;;;;;;;20.08;3.00;;;9.20;99.90;;;;;;4859312;29;20465;-94
2023/03/25 07:58:50;;;;;;;17.92;2.65;;;9.10;99.90;;;;;;4860733;29;20830;-93
2023/03/25 08:01:16;;;;;;;22.20;3.15;;;8.80;99.90;;;;;;4859812;29;20438;-93
2023/03/25 08:03:41;;;;;;;22.27;2.67;;;8.40;99.90;;;;;;4860199;29;20906;-94
2023/03/25 08:06:07;;;;;;;22.93;3.23;;;8.80;99.90;;;;;;4860848;29;20425;-93
2023/03/25 08:08:33;;;;;;;19.58;2.55;;;8.80;99.90;;;;;;4858811;29;20419;-94
2023/03/25 08:10:59;;;;;;;20.67;2.90;;;8.80;99.90;;;;;;4860617;29;20938;-93
2023/03/25 08:13:25;;;;;;;23.15;2.85;;;8.90;99.90;;;;;;4859161;29;20460;-95
2023/03/25 08:15:51;;;;;;;26.45;3.80;;;8.70;99.90;;;;;;4860820;29;20487;-93
2023/03/25 08:18:16;;;;;;;20.45;2.63;;;8.90;99.90;;;;;;4859295;29;20419;-92
2023/03/25 08:20:42;;;;;;;23.80;3.13;;;9.40;99.90;;;;;;4862681;29;20978;-94
2023/03/25 08:23:09;;;;;;;19.27;2.20;;;9.10;99.90;;;;;;4863917;29;20575;-93
2023/03/25 08:25:40;;;;;;;18.50;2.30;;;8.90;99.90;;;;;;4862748;29;20518;-95
2023/03/25 08:28:07;;;;;;;23.13;3.05;;;9.40;99.90;;;;;;4864166;29;20807;-93
2023/03/25 08:30:37;;;;;;;20.83;2.90;;;9.40;99.90;;;;;;4862412;29;20772;-93
2023/03/25 08:33:08;;;;;;;23.20;2.85;;;9.80;99.90;;;;;;4864368;29;20486;-92
2023/03/25 08:35:35;;;;;;;18.63;2.80;;;10.10;99.90;;;;;;4862331;29;20494;-90
2023/03/25 08:38:04;;;;;;;20.67;2.40;;;10.40;99.90;;;;;;4879191;29;20426;-93
2023/03/25 08:40:33;;;;;;;17.63;2.97;;;9.70;99.90;;;;;;4863314;29;20439;-93
2023/03/25 08:42:59;;;;;;;16.88;2.35;;;9.80;99.90;;;;;;4862613;29;20423;-94
2023/03/25 08:45:25;;;;;;;19.67;3.00;;;10.00;99.90;;;;;;4863764;29;20980;-91
2023/03/25 08:47:50;;;;;;;22.07;3.03;;;10.50;99.90;;;;;;4862011;29;20423;-92
2023/03/25 08:50:16;;;;;;;18.40;2.63;;;10.30;99.90;;;;;;4863801;29;20415;-94
2023/03/25 08:52:43;;;;;;;15.23;1.70;;;10.50;99.90;;;;;;4861511;29;20470;-93
2023/03/25 08:55:09;;;;;;;18.40;2.50;;;10.50;99.90;;;;;;4863729;29;20567;-93
2023/03/25 08:57:36;;;;;;;15.63;2.40;;;10.60;99.90;;;;;;4862356;29;20407;-93
2023/03/25 09:00:13;;;;;;;19.02;2.67;;;10.80;99.90;;;;;;4862628;29;20439;-92
2023/03/25 09:02:41;;;;;;;16.38;2.35;;;10.60;99.90;;;;;;4863471;29;20994;-91
2023/03/25 09:05:08;;;;;;;13.82;2.13;;;10.80;99.90;;;;;;4861106;29;20422;-89
2023/03/25 09:07:35;;;;;;;20.42;2.55;;;10.60;99.90;;;;;;4863350;29;20942;-93
2023/03/25 09:10:00;;;;;;;13.82;2.55;;;10.80;99.90;;;;;;4861059;29;20510;-93
2023/03/25 09:12:26;;;;;;;19.08;2.88;;;10.90;99.90;;;;;;4863487;29;20417;-92
2023/03/25 09:14:52;;;;;;;17.07;2.60;;;11.10;99.90;;;;;;4861401;29;20437;-92
2023/03/25 09:17:17;;;;;;;14.80;2.10;;;11.20;99.90;;;;;;4862347;29;20447;-93
2023/03/25 09:19:43;;;;;;;15.70;2.35;;;11.20;99.90;;;;;;4862510;29;20419;-91
2023/03/25 09:22:09;;;;;;;17.97;2.50;;;11.20;99.90;;;;;;4861225;29;20434;-90
2023/03/25 09:24:34;;;;;;;14.63;2.03;;;10.90;99.90;;;;;;4862979;29;20839;-93
2023/03/25 09:27:01;;;;;;;16.73;2.60;;;11.20;99.90;;;;;;4861056;29;21070;-91
2023/03/25 09:29:27;;;;;;;15.17;2.23;;;10.90;99.90;;;;;;4863079;29;20426;-93
2023/03/25 09:31:53;;;;;;;16.67;2.00;;;10.90;99.90;;;;;;4859976;29;20419;-94
2023/03/25 09:34:19;;;;;;;16.35;2.60;;;11.10;99.90;;;;;;4862582;29;20411;-92
2023/03/25 09:36:44;;;;;;;14.87;1.97;;;11.00;99.90;;;;;;4862169;29;20423;-93
2023/03/25 09:39:10;;;;;;;13.83;2.13;;;11.00;99.90;;;;;;4861734;29;20454;-93
2023/03/25 09:41:52;;;;;;;14.68;2.25;;;11.00;99.90;;;;;;4862650;29;21029;-93
2023/03/25 09:44:25;;;;;;;13.43;1.95;;;10.60;99.90;;;;;;4860396;29;20427;-92
2023/03/25 09:46:51;;;;;;;12.95;2.33;;;10.50;99.90;;;;;;4862835;29;20443;-93
2023/03/25 09:49:21;;;;;;;14.55;1.60;;;10.50;99.90;;;;;;4861029;29;20470;-91
2023/03/25 09:51:49;;;;;;;15.60;2.05;;;10.80;99.90;;;;;;4862503;29;20411;-94
2023/03/25 09:54:30;;;;;;;16.58;2.50;;;10.60;99.90;;;;;;4862428;29;20827;-93
2023/03/25 09:57:01;;;;;;;16.53;2.07;;;10.70;99.90;;;;;;4860801;29;20429;-92
2023/03/25 09:59:47;;;;;;;17.03;2.37;;;11.10;99.90;;;;;;4862718;29;20909;-93
2023/03/25 10:02:35;;;;;;;10.73;1.67;;;10.70;99.90;;;;;;4861576;29;20474;-93
2023/03/25 10:05:38;;;;;;;14.68;1.77;;;10.90;99.90;;;;;;4861748;29;20437;-90
2023/03/25 10:08:19;;;;;;;15.32;1.88;;;10.80;99.90;;;;;;4862264;29;20431;-93
2023/03/25 10:11:03;;;;;;;14.98;2.42;;;10.70;99.90;;;;;;4860418;29;20431;-93
2023/03/25 10:13:48;;;;;;;16.27;2.13;;;11.10;99.90;;;;;;4861451;29;20434;-93
2023/03/25 10:16:34;;;;;;;18.90;2.33;;;11.10;99.90;;;;;;4861983;29;20475;-93
2023/03/25 10:19:34;;;;;;;15.60;2.50;;;11.20;99.90;;;;;;4860121;29;20425;-92
2023/03/25 10:22:23;;;;;;;15.40;2.10;;;11.20;99.90;;;;;;4861503;29;20434;-92
2023/03/25 10:25:13;;;;;;;15.38;2.30;;;11.30;99.90;;;;;;4814797;29;20435;-93
2023/03/25 10:27:45;;;;;;;16.65;2.47;;;11.40;99.90;;;;;;4859821;29;20957;-93
2023/03/25 10:30:31;;;;;;;14.10;1.80;;;11.50;99.90;;;;;;4876258;29;20426;-91
2023/03/25 10:33:00;;;;;;;14.55;1.83;;;11.20;99.90;;;;;;4860242;29;20423;-89
2023/03/25 10:35:32;;;;;;;13.35;2.40;;;11.40;99.90;;;;;;4860403;29;20427;-94
2023/03/25 10:38:06;;;;;;;16.77;2.28;;;11.50;99.90;;;;;;4861630;29;20427;-89
2023/03/25 10:40:48;;;;;;;19.17;2.80;;;11.60;99.90;;;;;;4859812;29;20489;-94
2023/03/25 10:43:36;;;;;;;16.73;2.17;;;11.70;99.90;;;;;;4861384;29;20419;-93
2023/03/25 10:46:12;;;;;;;14.95;2.67;;;11.90;99.90;;;;;;4861167;29;20427;-92
2023/03/25 10:48:38;;;;;;;16.23;2.35;;;12.10;99.90;;;;;;4860076;29;20419;-90
2023/03/25 10:51:11;;;;;;;14.13;2.08;;;12.10;99.90;;;;;;4861409;29;20415;-93
2023/03/25 10:53:38;;;;;;;14.53;2.07;;;12.00;99.90;;;;;;4859553;29;20426;-88
2023/03/25 10:56:07;;;;;;;11.45;1.70;;;12.40;99.90;;;;;;4861734;29;20430;-93
2023/03/25 10:58:36;;;;;;;13.67;2.17;;;12.50;99.90;;;;;;4859747;29;20455;-93
2023/03/25 11:01:19;;;;;;;15.03;2.30;;;12.70;99.90;;;;;;4860989;29;20442;-91
2023/03/25 11:03:52;;;;;;;15.25;2.30;;;12.70;99.90;;;;;;4860842;29;20993;-90
2023/03/25 11:06:33;;;;;;;13.32;1.73;;;12.60;99.90;;;;;;4859520;29;20502;-93
2023/03/25 11:09:25;;;;;;;15.65;1.95;;;12.50;99.90;;;;;;4860757;29;20427;-92
2023/03/25 11:11:54;;;;;;;13.55;1.80;;;12.40;99.90;;;;;;4859837;29;20422;-90
2023/03/25 11:14:23;;;;;;;11.57;1.53;;;12.40;99.90;;;;;;4859970;29;20419;-92
2023/03/25 11:17:04;;;;;;;13.32;1.90;;;13.00;99.90;;;;;;4860980;29;20466;-93
2023/03/25 11:19:39;;;;;;;12.95;1.65;;;12.60;99.90;;;;;;4859002;29;20522;-92
2023/03/25 11:22:17;;;;;;;11.65;1.73;;;12.80;99.90;;;;;;4861066;29;20522;-93
2023/03/25 11:24:47;;;;;;;10.75;1.60;;;12.50;99.90;;;;;;4859545;29;20433;-92
2023/03/25 11:27:19;;;;;;;12.63;1.95;;;12.70;98.80;;;;;;4860431;29;20502;-93
2023/03/25 11:29:55;;;;;;;12.75;1.60;;;12.70;99.90;;;;;;4860848;29;20491;-93
2023/03/25 11:32:33;;;;;;;10.17;1.47;;;12.70;99.90;;;;;;4858972;29;20998;-92
2023/03/25 11:35:06;;;;;;;13.88;3.42;;;12.50;98.90;;;;;;4861088;29;20431;-94
2023/03/25 11:37:41;;;;;;;13.23;2.35;;;12.50;99.90;;;;;;4859442;29;20426;-91
2023/03/25 11:40:15;;;;;;;11.23;1.70;;;12.40;99.90;;;;;;4860310;29;20517;-92
2023/03/25 11:42:48;;;;;;;11.23;1.97;;;12.30;99.90;;;;;;4860719;29;20774;-89
2023/03/25 11:45:38;;;;;;;14.77;2.22;;;12.50;99.90;;;;;;4859219;29;20429;-90
2023/03/25 11:48:29;;;;;;;10.98;1.52;;;12.80;99.90;;;;;;4860637;29;20515;-90
2023/03/25 11:50:58;;;;;;;9.95;1.40;;;12.30;99.70;;;;;;4860199;29;20423;-94
2023/03/25 11:53:27;;;;;;;11.90;1.75;;;12.50;99.90;;;;;;4859704;29;20760;-91
2023/03/25 11:55:55;;;;;;;10.30;1.40;;;12.50;99.90;;;;;;4863069;29;20941;-91
2023/03/25 11:58:27;;;;;;;10.98;1.63;;;12.50;99.90;;;;;;4862678;29;20835;-90
2023/03/25 12:01:01;;;;;;;9.90;1.38;;;12.50;99.00;;;;;;4864199;29;21076;-90
2023/03/25 12:03:30;;;;;;;11.73;1.55;;;12.70;99.90;;;;;;4862784;29;20486;-88
2023/03/25 12:06:04;;;;;;;14.10;2.08;;;12.40;99.00;;;;;;4863988;29;20957;-91
2023/03/25 12:08:42;;;;;;;11.90;1.45;;;12.40;99.90;;;;;;4864034;29;20427;-92
2023/03/25 12:11:31;;;;;;;12.77;1.45;;;12.50;99.90;;;;;;4862499;29;20422;-90
2023/03/25 12:14:00;;;;;;;12.32;1.88;;;12.60;99.90;;;;;;4864392;29;20430;-93
2023/03/25 12:16:42;;;;;;;10.82;1.73;;;12.70;99.90;;;;;;4863113;29;20874;-92
2023/03/25 12:19:37;;;;;;;8.82;1.13;;;12.70;98.30;;;;;;4863361;29;20427;-94
2023/03/25 12:22:11;;;;;;;12.82;1.42;;;12.70;99.00;;;;;;4863977;29;20450;-93
2023/03/25 12:24:46;;;;;;;9.53;1.47;;;12.80;99.00;;;;;;4861843;29;20427;-94
2023/03/25 12:27:27;;;;;;;12.23;1.40;;;12.60;97.10;;;;;;4863794;29;20419;-91
2023/03/25 12:30:00;;;;;;;9.98;1.52;;;12.50;96.20;;;;;;4863417;29;20449;-96
2023/03/25 12:32:47;;;;;;;10.45;1.20;;;12.40;98.40;;;;;;4862897;29;20574;-94
2023/03/25 12:35:51;;;;;;;10.27;1.40;;;12.30;99.90;;;;;;4863716;29;20407;-92
2023/03/25 12:38:35;;;;;;;12.45;1.63;;;12.00;99.90;;;;;;4862734;29;20422;-94
2023/03/25 12:41:22;;;;;;;11.52;1.52;;;11.80;99.90;;;;;;4862350;29;21005;-94
2023/03/25 12:43:58;;;;;;;9.43;1.10;;;11.70;99.90;;;;;;4864113;29;20760;-94
2023/03/25 12:47:00;;;;;;;11.27;1.70;;;11.50;99.90;;;;;;4861955;29;20431;-93
2023/03/25 12:49:28;;;;;;;12.50;1.65;;;11.30;99.90;;;;;;4863044;29;20427;-94
2023/03/25 12:52:17;;;;;;;16.15;2.13;;;11.00;99.90;;;;;;4864607;29;20460;-94
2023/03/25 12:54:52;;;;;;;10.55;1.38;;;10.70;99.90;;;;;;4862039;29;20751;-95
2023/03/25 12:57:21;;;;;;;13.40;1.83;;;10.50;99.90;;;;;;4863698;29;20415;-92
2023/03/25 13:00:00;;;;;;;10.40;1.30;;;10.40;99.90;;;;;;4862194;29;20925;-94
2023/03/25 13:02:53;;;;;;;14.10;2.28;;;10.50;99.90;;;;;;4863152;29;20839;-91
2023/03/25 13:05:30;;;;;;;13.80;1.40;;;10.10;99.90;;;;;;4863388;29;20423;-95